Fulmar — WDD3992 — position and weather

sailwx.info

Track history (hours):
 
Tides and Currents Weather Stations Pressure Air Temp Water Temp Dewpoint Dewpoint Depression Visibility Wind Speed Wind Dir Waves Ship Positions

Oceanographic research ship Fulmar (United States)

Owner: NOAA R/V Fulmar, Monterey, CA. More information available from US FCC via Universal Licensing System.

Last reported at 2017-Aug-10 19:43 UTC. Time now 2017-Aug-17 01:45 UTC.
Position N 36°37' W 121°54'.

Length 20 m; draft 2 m.

Type: Ship. MMSI: 367139040.

Date/timePositionNaut miles runAvg speedWind from/ knotsBaromVisibWave heightAir tempDewpointWater temp
2017-Aug-10 19:43N 36°37' W 121°54'0 0.0
2017-Aug-10 19:30N 36°37' W 121°54'0 0.2
2017-Aug-10 19:00N 36°37' W 121°54'0 0.7
2017-Aug-10 18:30N 36°36' W 121°53'0 0.0
2017-Aug-10 18:00N 36°36' W 121°53'0 0.0
2017-Aug-10 17:30N 36°36' W 121°53'0 0.6
2017-Aug-10 17:00N 36°37' W 121°54'0 0.0
2017-Aug-10 16:24N 36°37' W 121°54'  
2017-Aug-04 23:50N 36°37' W 121°54'26 3.7
2017-Aug-04 16:44N 36°43' W 122°25'2617.2
2017-Aug-04 15:14N 36°37' W 121°54'1 3.7
2017-Aug-04 14:59N 36°37' W 121°54'0 0.0
2017-Aug-04 00:41N 36°37' W 121°54'0 0.0
2017-Aug-04 00:29N 36°37' W 121°54'610.4
2017-Aug-03 23:57N 36°39' W 121°59'817.6
2017-Aug-03 23:30N 36°41' W 122°09'816.6
2017-Aug-03 23:00N 36°42' W 122°19'612.1
2017-Aug-03 22:30N 36°43' W 122°27'510.4
2017-Aug-03 22:01N 36°40' W 122°21'3 6.8
2017-Aug-03 21:31N 36°40' W 122°17'5 8.6
2017-Aug-03 20:54N 36°45' W 122°17'0 0.8
2017-Aug-03 20:31N 36°45' W 122°17'2 4.2
2017-Aug-03 20:00N 36°45' W 122°14'510.3
2017-Aug-03 19:30N 36°43' W 122°08'1 2.7
2017-Aug-03 19:00N 36°42' W 122°09'815.1
2017-Aug-03 18:31N 36°39' W 122°18'815.9
2017-Aug-03 18:00N 36°43' W 122°27'4 8.6
2017-Aug-03 17:31N 36°45' W 122°22'4 7.4
2017-Aug-03 17:00N 36°46' W 122°18'713.5
2017-Aug-03 16:30N 36°44' W 122°10'816.4
2017-Aug-03 16:00N 36°41' W 122°00'714.2
2017-Aug-03 15:30N 36°36' W 121°53'0 0.2
2017-Aug-03 15:00N 36°37' W 121°54'0 0.0
2017-Aug-02 21:05N 36°37' W 121°54'0 0.0
2017-Aug-02 20:32N 36°37' W 121°54'0 0.0
2017-Aug-02 20:26N 36°37' W 121°54'0 0.0
2017-Aug-02 19:56N 36°37' W 121°54'0 0.0
2017-Aug-02 19:26N 36°37' W 121°54'0 0.0
2017-Aug-02 18:56N 36°37' W 121°54'0 0.0
2017-Aug-02 18:29N 36°37' W 121°54'0 0.0
2017-Aug-02 17:56N 36°37' W 121°54'0 0.0
2017-Aug-02 17:23N 36°37' W 121°54'0 0.0
2017-Aug-02 16:59N 36°37' W 121°54'  
Track history (hours):
 
Tides and Currents Weather Stations Pressure Air Temp Water Temp Dewpoint Dewpoint Depression Visibility Wind Speed Wind Dir Waves Ship Positions

Oceanographic research ship Fulmar (United States)

Owner: NOAA R/V Fulmar, Monterey, CA. More information available from US FCC via Universal Licensing System.

Last reported at 2017-Aug-10 19:43 UTC. Time now 2017-Aug-17 01:45 UTC.
Position N 36°37' W 121°54'.

Length 20 m; draft 2 m.

Type: Ship. MMSI: 367139040.

Date/timePositionNaut miles runAvg speedWind from/ knotsBaromVisibWave heightAir tempDewpointWater temp
2017-Aug-10 19:43N 36°37' W 121°54'0 0.0
2017-Aug-10 19:30N 36°37' W 121°54'0 0.2
2017-Aug-10 19:00N 36°37' W 121°54'0 0.7
2017-Aug-10 18:30N 36°36' W 121°53'0 0.0
2017-Aug-10 18:00N 36°36' W 121°53'0 0.0
2017-Aug-10 17:30N 36°36' W 121°53'0 0.6
2017-Aug-10 17:00N 36°37' W 121°54'0 0.0
2017-Aug-10 16:24N 36°37' W 121°54'  
2017-Aug-04 23:50N 36°37' W 121°54'26 3.7
2017-Aug-04 16:44N 36°43' W 122°25'2617.2
2017-Aug-04 15:14N 36°37' W 121°54'1 3.7
2017-Aug-04 14:59N 36°37' W 121°54'0 0.0
2017-Aug-04 00:41N 36°37' W 121°54'0 0.0
2017-Aug-04 00:29N 36°37' W 121°54'610.4
2017-Aug-03 23:57N 36°39' W 121°59'817.6
2017-Aug-03 23:30N 36°41' W 122°09'816.6
2017-Aug-03 23:00N 36°42' W 122°19'612.1
2017-Aug-03 22:30N 36°43' W 122°27'510.4
2017-Aug-03 22:01N 36°40' W 122°21'3 6.8
2017-Aug-03 21:31N 36°40' W 122°17'5 8.6
2017-Aug-03 20:54N 36°45' W 122°17'0 0.8
2017-Aug-03 20:31N 36°45' W 122°17'2 4.2
2017-Aug-03 20:00N 36°45' W 122°14'510.3
2017-Aug-03 19:30N 36°43' W 122°08'1 2.7
2017-Aug-03 19:00N 36°42' W 122°09'815.1
2017-Aug-03 18:31N 36°39' W 122°18'815.9
2017-Aug-03 18:00N 36°43' W 122°27'4 8.6
2017-Aug-03 17:31N 36°45' W 122°22'4 7.4
2017-Aug-03 17:00N 36°46' W 122°18'713.5
2017-Aug-03 16:30N 36°44' W 122°10'816.4
2017-Aug-03 16:00N 36°41' W 122°00'714.2
2017-Aug-03 15:30N 36°36' W 121°53'0 0.2
2017-Aug-03 15:00N 36°37' W 121°54'0 0.0
2017-Aug-02 21:05N 36°37' W 121°54'0 0.0
2017-Aug-02 20:32N 36°37' W 121°54'0 0.0
2017-Aug-02 20:26N 36°37' W 121°54'0 0.0
2017-Aug-02 19:56N 36°37' W 121°54'0 0.0
2017-Aug-02 19:26N 36°37' W 121°54'0 0.0
2017-Aug-02 18:56N 36°37' W 121°54'0 0.0
2017-Aug-02 18:29N 36°37' W 121°54'0 0.0
2017-Aug-02 17:56N 36°37' W 121°54'0 0.0
2017-Aug-02 17:23N 36°37' W 121°54'0 0.0
2017-Aug-02 16:59N 36°37' W 121°54'  

Dump ship's entire track history